createdAt,value
2022-09-23T00:00:46.408Z,38.61
2022-09-23T00:02:18.979Z,38.65
2022-09-23T00:03:51.984Z,38.78
2022-09-23T00:05:24.590Z,38.69
2022-09-23T00:06:57.211Z,38.98
2022-09-23T00:08:30.543Z,39.87
2022-09-23T00:10:03.334Z,39.78
2022-09-23T00:11:35.918Z,40.29
2022-09-23T00:13:08.800Z,41.44
2022-09-23T00:14:41.316Z,43.73
2022-09-23T00:16:16.356Z,45.20
2022-09-23T00:17:49.054Z,46.05
2022-09-23T00:19:21.937Z,47.34
2022-09-23T00:20:54.517Z,49.34
2022-09-23T00:22:27.487Z,49.69
2022-09-23T00:24:00.409Z,50.28
2022-09-23T00:25:33.106Z,51.37
2022-09-23T00:27:05.746Z,52.50
2022-09-23T00:28:38.859Z,53.92
2022-09-23T00:30:11.575Z,53.87
2022-09-23T00:31:44.075Z,54.07
2022-09-23T00:33:16.628Z,54.86
2022-09-23T00:34:50.376Z,54.17
2022-09-23T00:36:23.673Z,54.27
2022-09-23T00:37:56.422Z,55.65
2022-09-23T00:39:29.199Z,56.62
2022-09-23T00:41:02.002Z,56.58
2022-09-23T00:42:35.055Z,56.50
2022-09-23T00:44:27.762Z,56.03
2022-09-23T00:46:00.733Z,56.18
2022-09-23T00:47:44.416Z,55.65
2022-09-23T00:49:28.222Z,56.51
2022-09-23T00:51:01.935Z,57.83
2022-09-23T00:52:34.516Z,56.97
2022-09-23T00:54:07.463Z,57.38
2022-09-23T00:55:48.982Z,56.55
2022-09-23T00:57:22.260Z,56.11
2022-09-23T00:58:54.852Z,55.38
2022-09-23T01:00:27.749Z,55.81
2022-09-23T01:02:01.577Z,54.64
2022-09-23T01:03:34.358Z,54.62
2022-09-23T01:05:08.010Z,54.77
2022-09-23T01:06:41.398Z,53.84
2022-09-23T01:08:14.833Z,54.13
2022-09-23T01:09:48.304Z,53.76
2022-09-23T01:11:29.922Z,54.47
2022-09-23T01:13:05.775Z,53.17
2022-09-23T01:14:47.583Z,53.81
2022-09-23T01:16:26.279Z,54.23
2022-09-23T01:18:19.453Z,53.81
2022-09-23T01:20:10.563Z,53.31
2022-09-23T01:21:53.503Z,51.84
2022-09-23T01:23:44.832Z,51.13
2022-09-23T01:25:35.852Z,50.35
2022-09-23T01:27:14.651Z,49.82
2022-09-23T01:28:47.606Z,48.90
2022-09-23T01:30:46.341Z,49.11
2022-09-23T01:32:28.104Z,48.98
2022-09-23T01:34:13.818Z,49.56
2022-09-23T01:36:00.677Z,49.13
2022-09-23T01:37:39.437Z,49.09
2022-09-23T01:39:24.815Z,48.19
2022-09-23T01:41:01.086Z,47.96
2022-09-23T01:42:47.466Z,47.88
2022-09-23T01:44:19.915Z,47.64
2022-09-23T01:45:56.904Z,47.62
2022-09-23T01:47:37.716Z,46.74
2022-09-23T01:49:22.482Z,46.38
2022-09-23T01:51:02.878Z,46.17
2022-09-23T01:52:44.905Z,46.04
2022-09-23T01:54:22.963Z,45.47
2022-09-23T01:55:59.180Z,45.05
2022-09-23T01:57:35.208Z,44.82
2022-09-23T01:59:13.124Z,44.75
2022-09-23T02:00:58.252Z,44.13
2022-09-23T02:02:35.900Z,44.15
2022-09-23T02:04:17.854Z,44.56
2022-09-23T02:05:58.339Z,43.94
2022-09-23T02:07:50.145Z,43.82
2022-09-23T02:09:25.395Z,43.65
2022-09-23T02:11:00.983Z,44.12
2022-09-23T02:12:35.681Z,46.55
2022-09-23T02:14:20.499Z,48.28
2022-09-23T02:15:56.095Z,48.90
2022-09-23T02:17:36.726Z,49.50
2022-09-23T02:19:15.794Z,51.97
2022-09-23T02:20:50.289Z,53.70
2022-09-23T02:22:31.980Z,54.29
2022-09-23T02:24:09.318Z,55.71
2022-09-23T02:25:57.283Z,55.37
2022-09-23T02:27:45.164Z,54.55
2022-09-23T02:29:17.733Z,53.89
2022-09-23T02:30:56.212Z,53.46
2022-09-23T02:32:53.567Z,52.73
2022-09-23T02:34:26.149Z,48.11
2022-09-23T02:36:04.943Z,46.32
2022-09-23T02:37:37.490Z,43.39
2022-09-23T02:39:13.225Z,41.41
2022-09-23T02:40:48.508Z,39.86
2022-09-23T02:42:35.037Z,37.30
2022-09-23T02:44:13.007Z,39.04
2022-09-23T02:45:46.574Z,41.17
2022-09-23T02:47:22.229Z,43.08
2022-09-23T02:49:21.143Z,44.16
2022-09-23T02:50:54.785Z,45.26
2022-09-23T02:52:27.858Z,44.86
2022-09-23T02:54:03.735Z,42.97
2022-09-23T02:55:36.551Z,44.16
2022-09-23T02:57:10.444Z,44.57
2022-09-23T02:58:43.408Z,44.73
2022-09-23T03:00:17.151Z,43.24
2022-09-23T03:01:53.238Z,41.60
2022-09-23T03:03:29.304Z,40.00
2022-09-23T03:05:19.585Z,38.18
2022-09-23T03:06:52.107Z,37.07
2022-09-23T03:08:37.101Z,36.25
2022-09-23T03:10:25.023Z,34.81
2022-09-23T03:12:16.855Z,34.26
2022-09-23T03:13:53.581Z,34.16
2022-09-23T03:15:38.977Z,33.91
2022-09-23T03:17:17.532Z,33.11
2022-09-23T03:18:53.403Z,32.37
2022-09-23T03:20:35.800Z,32.04
2022-09-23T03:22:08.559Z,31.37
2022-09-23T03:23:42.587Z,31.34
2022-09-23T03:25:24.159Z,30.86
2022-09-23T03:27:00.624Z,31.43
2022-09-23T03:28:35.522Z,29.93
2022-09-23T03:30:08.949Z,28.29
2022-09-23T03:31:42.698Z,27.66
2022-09-23T03:33:17.666Z,28.66
2022-09-23T03:34:52.006Z,26.93
2022-09-23T03:36:50.110Z,27.13
2022-09-23T03:38:26.362Z,26.75
2022-09-23T03:40:09.701Z,27.09
2022-09-23T03:41:46.052Z,26.64
2022-09-23T03:43:19.025Z,26.73
2022-09-23T03:44:57.677Z,26.82
2022-09-23T03:46:30.501Z,26.04
2022-09-23T03:48:03.308Z,26.29
2022-09-23T03:49:37.523Z,26.31
2022-09-23T03:51:36.532Z,26.55
2022-09-23T03:53:09.214Z,25.49
2022-09-23T03:54:42.093Z,25.71
2022-09-23T03:56:14.897Z,25.80
2022-09-23T03:57:48.250Z,24.95
2022-09-23T03:59:20.881Z,24.83
2022-09-23T04:00:55.041Z,24.37
2022-09-23T04:02:27.895Z,23.67
2022-09-23T04:04:00.911Z,24.22
2022-09-23T04:05:33.867Z,24.79
2022-09-23T04:07:06.472Z,24.42
2022-09-23T04:08:39.102Z,24.36
2022-09-23T04:10:12.033Z,24.98
2022-09-23T04:11:44.633Z,25.29
2022-09-23T04:13:17.500Z,25.38
2022-09-23T04:14:50.157Z,24.99
2022-09-23T04:16:23.334Z,25.08
2022-09-23T04:17:55.998Z,25.17
2022-09-23T04:19:28.585Z,24.93
2022-09-23T04:21:01.278Z,24.77
2022-09-23T04:22:34.707Z,25.02
2022-09-23T04:24:07.728Z,25.05
2022-09-23T04:25:49.653Z,24.56
2022-09-23T04:27:22.242Z,24.62
2022-09-23T04:28:55.889Z,24.69
2022-09-23T04:30:28.812Z,23.95
2022-09-23T04:32:01.537Z,23.81
2022-09-23T04:33:34.303Z,24.26
2022-09-23T04:35:07.941Z,23.31
2022-09-23T04:36:41.125Z,24.08
2022-09-23T04:38:13.960Z,23.01
2022-09-23T04:39:46.514Z,23.18
2022-09-23T04:41:19.597Z,22.99
2022-09-23T04:42:52.343Z,23.23
2022-09-23T04:44:26.412Z,23.55
2022-09-23T04:46:00.816Z,23.50
2022-09-23T04:47:33.517Z,23.72
2022-09-23T04:49:06.597Z,23.96
2022-09-23T04:50:39.667Z,24.44
2022-09-23T04:52:12.366Z,24.17
2022-09-23T04:53:46.454Z,24.27
2022-09-23T04:55:19.552Z,24.43
2022-09-23T04:56:52.793Z,24.10
2022-09-23T04:58:25.599Z,24.26
2022-09-23T04:59:58.410Z,23.30
2022-09-23T05:01:32.107Z,23.69
2022-09-23T05:03:04.810Z,23.89
2022-09-23T05:04:37.818Z,24.05
2022-09-23T05:06:14.146Z,24.47
2022-09-23T05:07:47.208Z,24.52
2022-09-23T05:09:19.797Z,23.78
2022-09-23T05:10:56.614Z,23.87
2022-09-23T05:12:29.344Z,23.71
2022-09-23T05:14:02.225Z,23.69
2022-09-23T05:15:35.243Z,23.74
2022-09-23T05:17:07.766Z,23.90
2022-09-23T05:18:44.579Z,23.95
2022-09-23T05:20:17.431Z,24.11
2022-09-23T05:21:50.048Z,23.63
2022-09-23T05:23:25.939Z,23.36
2022-09-23T05:25:00.606Z,23.30
2022-09-23T05:26:33.557Z,23.47
2022-09-23T05:28:07.098Z,23.83
2022-09-23T05:29:39.601Z,23.87
2022-09-23T05:31:19.753Z,22.85
2022-09-23T05:32:53.094Z,22.90
2022-09-23T05:34:25.762Z,23.38
2022-09-23T05:35:58.346Z,23.52
2022-09-23T05:37:33.441Z,23.75
2022-09-23T05:39:06.930Z,23.82
2022-09-23T05:40:39.808Z,24.23
2022-09-23T05:42:12.766Z,24.29
2022-09-23T05:43:45.667Z,24.07
2022-09-23T05:45:18.742Z,23.58
2022-09-23T05:46:51.417Z,23.84
2022-09-23T05:48:24.028Z,24.15
2022-09-23T05:50:00.178Z,24.26
2022-09-23T05:51:34.959Z,23.98
2022-09-23T05:53:07.572Z,23.97
2022-09-23T05:54:41.298Z,24.36
2022-09-23T05:56:14.827Z,24.56
2022-09-23T05:57:47.514Z,24.54
2022-09-23T05:59:20.119Z,24.35
2022-09-23T06:00:52.827Z,24.23
2022-09-23T06:02:25.630Z,24.30
2022-09-23T06:03:58.968Z,24.67
2022-09-23T06:05:31.678Z,24.93
2022-09-23T06:07:04.267Z,24.58
2022-09-23T06:08:38.180Z,24.81
2022-09-23T06:10:10.852Z,25.05
2022-09-23T06:11:43.695Z,24.80
2022-09-23T06:13:16.516Z,24.80
2022-09-23T06:14:51.079Z,24.59
2022-09-23T06:16:23.916Z,25.12
2022-09-23T06:17:56.521Z,24.54
2022-09-23T06:19:29.110Z,24.75
2022-09-23T06:21:03.370Z,25.03
2022-09-23T06:22:39.113Z,25.33
2022-09-23T06:24:17.666Z,25.49
2022-09-23T06:25:51.707Z,26.23
2022-09-23T06:27:24.492Z,26.72
2022-09-23T06:28:57.464Z,26.51
2022-09-23T06:30:30.169Z,26.10
2022-09-23T06:32:03.314Z,25.88
2022-09-23T06:33:37.363Z,26.31
2022-09-23T06:35:21.800Z,26.57
2022-09-23T06:36:58.684Z,27.03
2022-09-23T06:38:36.087Z,27.47
2022-09-23T06:40:08.879Z,27.51
2022-09-23T06:41:41.778Z,27.40
2022-09-23T06:43:18.082Z,27.60
2022-09-23T06:44:50.719Z,27.33
2022-09-23T06:46:23.610Z,26.96
2022-09-23T06:47:57.123Z,27.04
2022-09-23T06:49:29.992Z,26.90
2022-09-23T06:51:04.391Z,27.06
2022-09-23T06:52:37.146Z,27.30
2022-09-23T06:54:11.391Z,27.29
2022-09-23T06:55:44.669Z,27.57
2022-09-23T06:57:17.675Z,25.72
2022-09-23T06:58:52.255Z,26.01
2022-09-23T07:00:29.462Z,26.27
2022-09-23T07:02:02.180Z,26.33
2022-09-23T07:03:35.228Z,26.76
2022-09-23T07:05:08.533Z,26.07
2022-09-23T07:06:41.494Z,25.85
2022-09-23T07:08:14.171Z,25.42
2022-09-23T07:09:47.481Z,25.04
2022-09-23T07:11:23.310Z,24.90
2022-09-23T07:12:56.196Z,24.01
2022-09-23T07:14:28.727Z,24.42
2022-09-23T07:16:05.623Z,24.32
2022-09-23T07:17:38.471Z,24.14
2022-09-23T07:19:12.531Z,24.36
2022-09-23T07:20:45.821Z,24.51
2022-09-23T07:22:19.019Z,24.03
2022-09-23T07:23:52.241Z,24.23
2022-09-23T07:25:24.882Z,24.33
2022-09-23T07:26:57.398Z,24.23
2022-09-23T07:28:30.108Z,24.42
2022-09-23T07:30:02.897Z,24.54
2022-09-23T07:31:39.737Z,24.04
2022-09-23T07:33:29.312Z,24.96
2022-09-23T07:35:04.129Z,24.64
2022-09-23T07:36:41.189Z,24.81
2022-09-23T07:38:14.042Z,24.74
2022-09-23T07:39:46.609Z,24.22
2022-09-23T07:41:19.727Z,24.33
2022-09-23T07:42:52.419Z,24.24
2022-09-23T07:44:25.835Z,24.10
2022-09-23T07:45:59.389Z,23.98
2022-09-23T07:47:32.236Z,24.08
2022-09-23T07:49:05.729Z,23.87
2022-09-23T07:50:39.387Z,23.93
2022-09-23T07:52:12.036Z,23.46
2022-09-23T07:53:47.594Z,23.98
2022-09-23T07:55:21.146Z,23.96
2022-09-23T07:56:53.838Z,23.35
2022-09-23T07:58:26.508Z,23.88
2022-09-23T07:59:59.472Z,23.22
2022-09-23T08:01:36.494Z,23.07
2022-09-23T08:03:10.261Z,23.01
2022-09-23T08:04:43.061Z,23.00
2022-09-23T08:06:15.841Z,22.61
2022-09-23T08:07:49.737Z,22.21
2022-09-23T08:09:24.154Z,22.70
2022-09-23T08:11:06.481Z,22.67
2022-09-23T08:12:40.155Z,22.40
2022-09-23T08:14:14.040Z,22.63
2022-09-23T08:15:52.052Z,22.18
2022-09-23T08:17:27.763Z,22.84
2022-09-23T08:19:00.672Z,22.49
2022-09-23T08:20:47.345Z,22.07
2022-09-23T08:22:21.110Z,21.89
2022-09-23T08:23:53.791Z,22.21
2022-09-23T08:25:26.719Z,22.04
2022-09-23T08:26:59.655Z,22.45
2022-09-23T08:28:34.306Z,22.12
2022-09-23T08:30:07.219Z,22.32
2022-09-23T08:31:40.112Z,22.20
2022-09-23T08:33:12.960Z,22.42
2022-09-23T08:34:45.787Z,22.43
2022-09-23T08:36:18.537Z,22.11
2022-09-23T08:37:51.328Z,22.16
2022-09-23T08:39:24.178Z,22.40
2022-09-23T08:41:05.985Z,22.64
2022-09-23T08:42:39.733Z,22.03
2022-09-23T08:44:12.657Z,21.58
2022-09-23T08:45:46.188Z,22.05
2022-09-23T08:47:54.449Z,21.87
2022-09-23T08:49:32.095Z,21.83
2022-09-23T08:51:06.076Z,22.18
2022-09-23T08:52:44.599Z,21.67
2022-09-23T08:54:18.461Z,21.83
2022-09-23T08:55:53.956Z,22.03
2022-09-23T08:57:37.464Z,21.81
2022-09-23T08:59:15.022Z,21.73
2022-09-23T09:01:00.157Z,21.89
2022-09-23T09:02:34.709Z,21.76
2022-09-23T09:04:27.695Z,21.70
2022-09-23T09:06:00.343Z,21.80
2022-09-23T09:07:37.105Z,21.80
2022-09-23T09:09:20.044Z,21.58
2022-09-23T09:10:55.469Z,21.53
2022-09-23T09:12:34.088Z,21.70
2022-09-23T09:14:15.721Z,21.79
2022-09-23T09:16:06.043Z,21.17
2022-09-23T09:17:41.122Z,21.60
2022-09-23T09:19:32.842Z,21.19
2022-09-23T09:21:10.175Z,21.66
2022-09-23T09:22:54.758Z,22.00
2022-09-23T09:24:47.735Z,21.73
2022-09-23T09:26:25.927Z,21.39
2022-09-23T09:27:59.153Z,22.18
2022-09-23T09:29:39.218Z,21.06
2022-09-23T09:31:27.692Z,21.16
2022-09-23T09:33:04.851Z,21.37
2022-09-23T09:34:41.585Z,20.97
2022-09-23T09:36:20.261Z,20.92
2022-09-23T09:37:53.598Z,20.63
2022-09-23T09:39:27.664Z,21.03
2022-09-23T09:41:02.592Z,20.71
2022-09-23T09:42:42.359Z,20.97
2022-09-23T09:44:27.493Z,20.95
2022-09-23T09:46:00.115Z,20.84
2022-09-23T09:47:35.581Z,20.89
2022-09-23T09:49:23.379Z,20.49
2022-09-23T09:50:56.370Z,20.52
2022-09-23T09:52:30.081Z,20.45
2022-09-23T09:54:22.437Z,20.82
2022-09-23T09:56:05.786Z,20.74
2022-09-23T09:57:46.637Z,20.91
2022-09-23T09:59:24.934Z,21.16
2022-09-23T10:00:59.325Z,21.41
2022-09-23T10:02:34.188Z,20.91
2022-09-23T10:04:20.243Z,20.88
2022-09-23T10:05:54.718Z,20.87
2022-09-23T10:07:29.220Z,20.23
2022-09-23T10:09:05.264Z,20.09
2022-09-23T10:10:37.926Z,20.45
2022-09-23T10:12:15.935Z,20.71
2022-09-23T10:14:09.776Z,20.84
2022-09-23T10:15:44.896Z,20.36
2022-09-23T10:17:38.232Z,20.42
2022-09-23T10:19:27.773Z,20.15
2022-09-23T10:21:01.849Z,20.28
2022-09-23T10:22:37.662Z,19.97
2022-09-23T10:24:21.136Z,20.17
2022-09-23T10:26:13.108Z,20.34
2022-09-23T10:27:46.208Z,20.33
2022-09-23T10:29:32.805Z,20.52
2022-09-23T10:31:05.744Z,19.87
2022-09-23T10:32:44.554Z,19.79
2022-09-23T10:34:25.256Z,19.94
2022-09-23T10:35:58.061Z,19.67
2022-09-23T10:37:32.996Z,19.83
2022-09-23T10:39:24.394Z,20.22
2022-09-23T10:41:15.572Z,19.95
2022-09-23T10:43:09.576Z,20.01
2022-09-23T10:45:04.105Z,19.96
2022-09-23T10:46:42.407Z,19.65
2022-09-23T10:48:15.071Z,19.19
2022-09-23T10:50:17.281Z,19.67
2022-09-23T10:51:55.815Z,19.40
2022-09-23T10:53:31.582Z,19.55
2022-09-23T10:55:06.730Z,19.31
2022-09-23T10:56:48.409Z,18.53
2022-09-23T10:58:39.693Z,18.95
2022-09-23T11:00:23.904Z,18.88
2022-09-23T11:02:17.096Z,19.49
2022-09-23T11:03:52.589Z,19.18
2022-09-23T11:05:33.751Z,18.74
2022-09-23T11:07:09.310Z,18.24
2022-09-23T11:09:01.187Z,18.46
2022-09-23T11:10:52.858Z,18.40
2022-09-23T11:12:53.227Z,18.26
2022-09-23T11:14:42.831Z,18.13
2022-09-23T11:16:21.848Z,18.54
2022-09-23T11:18:04.562Z,18.71
2022-09-23T11:19:58.178Z,19.22
2022-09-23T11:21:30.945Z,19.13
2022-09-23T11:23:20.421Z,19.28
2022-09-23T11:25:07.232Z,19.25
2022-09-23T11:26:41.651Z,19.68
2022-09-23T11:28:32.717Z,19.82
2022-09-23T11:30:13.024Z,20.23
2022-09-23T11:32:01.255Z,20.28
2022-09-23T11:33:39.820Z,20.25
2022-09-23T11:35:19.757Z,20.28
2022-09-23T11:37:04.376Z,19.95
2022-09-23T11:38:43.200Z,20.43
2022-09-23T11:40:16.022Z,20.43
2022-09-23T11:41:52.160Z,20.55
2022-09-23T11:43:26.865Z,20.17
2022-09-23T11:45:01.664Z,20.01
2022-09-23T11:46:34.164Z,20.13
2022-09-23T11:48:11.933Z,20.70
2022-09-23T11:49:50.730Z,20.18
2022-09-23T11:51:32.398Z,20.31
2022-09-23T11:53:12.936Z,20.04
2022-09-23T11:54:57.929Z,20.38
2022-09-23T11:56:48.607Z,20.43
2022-09-23T11:58:26.922Z,20.73
2022-09-23T12:00:04.512Z,20.85
2022-09-23T12:01:45.522Z,20.92
2022-09-23T12:03:42.998Z,20.96
2022-09-23T12:05:20.992Z,21.11
2022-09-23T12:07:04.483Z,21.38
2022-09-23T12:08:37.578Z,21.11
2022-09-23T12:10:11.410Z,21.32
2022-09-23T12:11:50.884Z,21.43
2022-09-23T12:13:33.053Z,21.40
2022-09-23T12:15:23.291Z,21.43
2022-09-23T12:17:08.337Z,21.59
2022-09-23T12:19:01.232Z,21.64
2022-09-23T12:20:33.845Z,21.79
2022-09-23T12:22:25.922Z,21.77
2022-09-23T12:23:59.644Z,21.64
2022-09-23T12:25:35.510Z,21.77
2022-09-23T12:27:12.318Z,22.07
2022-09-23T12:28:47.605Z,21.98
2022-09-23T12:30:22.012Z,22.25
2022-09-23T12:31:54.984Z,22.23
2022-09-23T12:33:28.901Z,22.20
2022-09-23T12:35:01.843Z,22.42
2022-09-23T12:36:35.679Z,22.40
2022-09-23T12:38:33.534Z,22.50
2022-09-23T12:40:14.658Z,22.46
2022-09-23T12:41:52.070Z,22.69
2022-09-23T12:43:29.975Z,22.49
2022-09-23T12:45:17.707Z,22.42
2022-09-23T12:47:10.219Z,22.64
2022-09-23T12:48:46.916Z,22.37
2022-09-23T12:50:38.826Z,22.50
2022-09-23T12:52:11.691Z,22.78
2022-09-23T12:53:54.549Z,22.74
2022-09-23T12:55:33.499Z,22.82
2022-09-23T12:57:10.095Z,22.83
2022-09-23T12:58:42.950Z,22.91
2022-09-23T13:00:15.758Z,22.97
2022-09-23T13:01:48.514Z,22.95
2022-09-23T13:03:40.770Z,22.79
2022-09-23T13:05:41.659Z,22.97
2022-09-23T13:07:34.346Z,22.97
2022-09-23T13:09:09.192Z,22.61
2022-09-23T13:10:44.378Z,22.77
2022-09-23T13:12:21.246Z,22.69
2022-09-23T13:13:55.273Z,22.80
2022-09-23T13:15:33.418Z,22.93
2022-09-23T13:17:06.075Z,22.85
2022-09-23T13:18:50.701Z,22.86
2022-09-23T13:20:23.609Z,22.91
2022-09-23T13:22:01.714Z,23.02
2022-09-23T13:23:36.445Z,23.15
2022-09-23T13:25:22.528Z,23.29
2022-09-23T13:27:08.503Z,23.68
2022-09-23T13:28:54.952Z,23.57
2022-09-23T13:30:28.289Z,23.75
2022-09-23T13:32:02.114Z,23.80
2022-09-23T13:33:39.612Z,23.92
2022-09-23T13:35:17.154Z,24.05
2022-09-23T13:36:49.769Z,24.07
2022-09-23T13:38:26.432Z,24.14
2022-09-23T13:40:09.348Z,24.45
2022-09-23T13:41:42.880Z,24.44
2022-09-23T13:43:21.137Z,24.51
2022-09-23T13:44:57.747Z,24.67
2022-09-23T13:46:39.065Z,24.94
2022-09-23T13:48:15.685Z,25.12
2022-09-23T13:49:48.812Z,25.04
2022-09-23T13:51:24.795Z,25.16
2022-09-23T13:52:58.581Z,25.20
2022-09-23T13:54:50.474Z,25.30
2022-09-23T13:56:24.989Z,25.43
2022-09-23T13:58:02.556Z,25.29
2022-09-23T13:59:39.111Z,25.37
2022-09-23T14:01:22.918Z,25.41
2022-09-23T14:02:56.134Z,25.57
2022-09-23T14:04:29.009Z,25.65
2022-09-23T14:06:02.649Z,25.86
2022-09-23T14:07:35.378Z,25.77
2022-09-23T14:09:08.023Z,25.96
2022-09-23T14:10:44.856Z,25.95
2022-09-23T14:12:22.580Z,25.75
2022-09-23T14:13:55.876Z,25.89
2022-09-23T14:15:30.868Z,25.69
2022-09-23T14:17:05.575Z,25.64
2022-09-23T14:18:43.549Z,25.66
2022-09-23T14:20:17.578Z,25.59
2022-09-23T14:21:51.652Z,25.74
2022-09-23T14:23:24.453Z,25.87
2022-09-23T14:24:57.832Z,25.90
2022-09-23T14:26:30.804Z,26.04
2022-09-23T14:28:04.513Z,25.98
2022-09-23T14:29:42.902Z,26.26
2022-09-23T14:31:15.741Z,26.34
2022-09-23T14:32:49.278Z,26.46
2022-09-23T14:34:41.099Z,26.51
2022-09-23T14:36:35.329Z,26.79
2022-09-23T14:38:26.507Z,26.73
2022-09-23T14:39:59.253Z,26.69
2022-09-23T14:41:43.149Z,26.55
2022-09-23T14:43:23.471Z,26.59
2022-09-23T14:44:56.307Z,26.52
2022-09-23T14:46:34.459Z,26.82
2022-09-23T14:48:07.485Z,26.67
2022-09-23T14:50:06.675Z,26.64
2022-09-23T14:51:39.182Z,26.57
2022-09-23T14:53:22.793Z,26.83
2022-09-23T14:54:55.746Z,26.58
2022-09-23T14:56:41.326Z,26.84
2022-09-23T14:58:17.594Z,26.66
2022-09-23T14:59:59.945Z,26.82
2022-09-23T15:01:32.863Z,26.46
2022-09-23T15:03:14.862Z,26.39
2022-09-23T15:04:47.724Z,26.52
2022-09-23T15:06:22.770Z,26.45
2022-09-23T15:07:57.661Z,26.59
2022-09-23T15:09:32.582Z,26.64
2022-09-23T15:11:08.012Z,26.67
2022-09-23T15:12:46.080Z,26.70
2022-09-23T15:14:36.519Z,26.76
2022-09-23T15:16:13.082Z,26.93
2022-09-23T15:17:46.510Z,26.77
2022-09-23T15:19:20.357Z,26.83
2022-09-23T15:20:55.714Z,26.80
2022-09-23T15:22:28.711Z,26.91
2022-09-23T15:24:01.580Z,26.88
2022-09-23T15:25:35.887Z,26.92
2022-09-23T15:27:17.843Z,27.00
2022-09-23T15:28:52.320Z,27.34
2022-09-23T15:30:25.297Z,27.20
2022-09-23T15:31:58.745Z,27.02
2022-09-23T15:33:32.268Z,27.09
2022-09-23T15:35:06.526Z,27.00
2022-09-23T15:36:40.336Z,27.12
2022-09-23T15:38:13.416Z,27.03
2022-09-23T15:39:46.142Z,26.98
2022-09-23T15:41:18.765Z,27.13
2022-09-23T15:42:54.755Z,27.18
2022-09-23T15:44:29.902Z,27.21
2022-09-23T15:46:06.655Z,27.15
2022-09-23T15:47:39.404Z,27.20
2022-09-23T15:49:27.062Z,27.41
2022-09-23T15:51:03.804Z,27.36
2022-09-23T15:52:37.357Z,27.36
2022-09-23T15:54:12.870Z,27.31
2022-09-23T15:55:45.938Z,27.37
2022-09-23T15:57:19.482Z,27.34
2022-09-23T15:58:52.187Z,27.30
2022-09-23T16:00:25.034Z,27.12
2022-09-23T16:01:59.744Z,27.27
2022-09-23T16:03:32.406Z,27.23
2022-09-23T16:05:07.918Z,27.36
2022-09-23T16:06:43.609Z,27.37
2022-09-23T16:08:16.635Z,27.58
2022-09-23T16:09:49.315Z,27.73
2022-09-23T16:11:27.754Z,27.93
2022-09-23T16:13:02.122Z,27.73
2022-09-23T16:14:35.114Z,27.89
2022-09-23T16:16:08.215Z,27.69
2022-09-23T16:17:42.289Z,27.51
2022-09-23T16:19:16.401Z,27.43
2022-09-23T16:20:50.676Z,27.39
2022-09-23T16:22:23.391Z,27.24
2022-09-23T16:23:57.551Z,26.99
2022-09-23T16:25:32.145Z,26.76
2022-09-23T16:27:08.068Z,26.76
2022-09-23T16:28:40.720Z,26.82
2022-09-23T16:30:13.509Z,26.87
2022-09-23T16:31:46.326Z,26.75
2022-09-23T16:33:19.390Z,27.11
2022-09-23T16:34:52.153Z,26.81
2022-09-23T16:36:29.152Z,26.64
2022-09-23T16:38:02.075Z,26.58
2022-09-23T16:39:34.961Z,26.25
2022-09-23T16:41:07.917Z,26.67
2022-09-23T16:42:40.955Z,26.25
2022-09-23T16:44:14.748Z,26.31
2022-09-23T16:45:47.771Z,26.44
2022-09-23T16:47:20.679Z,26.37
2022-09-23T16:48:53.983Z,26.70
2022-09-23T16:50:26.743Z,26.67
2022-09-23T16:52:02.045Z,26.80
2022-09-23T16:53:39.540Z,27.03
2022-09-23T16:55:13.243Z,27.21
2022-09-23T16:56:46.668Z,27.46
2022-09-23T16:58:19.452Z,27.42
2022-09-23T17:00:10.473Z,27.57
2022-09-23T17:02:01.594Z,27.57
2022-09-23T17:03:41.222Z,27.62
2022-09-23T17:05:16.707Z,27.62
2022-09-23T17:06:50.969Z,27.78
2022-09-23T17:08:23.707Z,27.64
2022-09-23T17:09:56.603Z,27.95
2022-09-23T17:11:33.442Z,27.87
2022-09-23T17:13:08.331Z,28.07
2022-09-23T17:14:41.027Z,27.94
2022-09-23T17:16:27.865Z,27.86
2022-09-23T17:18:00.540Z,27.97
2022-09-23T17:19:34.336Z,28.12
2022-09-23T17:21:07.679Z,28.05
2022-09-23T17:22:41.213Z,28.19
2022-09-23T17:24:13.781Z,28.11
2022-09-23T17:25:49.519Z,28.08
2022-09-23T17:27:22.122Z,27.90
2022-09-23T17:28:55.882Z,27.59
2022-09-23T17:30:29.305Z,27.65
2022-09-23T17:32:02.294Z,28.06
2022-09-23T17:33:38.401Z,27.78
2022-09-23T17:35:11.683Z,27.86
2022-09-23T17:36:44.207Z,27.96
2022-09-23T17:38:16.968Z,28.07
2022-09-23T17:39:49.588Z,28.11
2022-09-23T17:41:25.714Z,28.09
2022-09-23T17:43:00.164Z,28.09
2022-09-23T17:44:34.136Z,28.20
2022-09-23T17:46:11.030Z,28.14
2022-09-23T17:47:43.736Z,27.86
2022-09-23T17:49:18.027Z,28.06
2022-09-23T17:51:07.517Z,28.19
2022-09-23T17:52:40.438Z,27.96
2022-09-23T17:54:15.391Z,28.09
2022-09-23T17:56:01.563Z,28.20
2022-09-23T17:57:34.400Z,28.48
2022-09-23T17:59:07.300Z,28.41
2022-09-23T18:00:40.173Z,28.47
2022-09-23T18:02:15.572Z,28.35
2022-09-23T18:03:48.884Z,28.38
2022-09-23T18:05:22.418Z,28.23
2022-09-23T18:06:55.254Z,28.61
2022-09-23T18:08:30.493Z,28.38
2022-09-23T18:10:03.314Z,28.20
2022-09-23T18:11:37.361Z,28.17
2022-09-23T18:13:09.989Z,28.19
2022-09-23T18:14:42.757Z,28.38
2022-09-23T18:16:15.453Z,28.19
2022-09-23T18:17:48.224Z,28.21
2022-09-23T18:19:22.453Z,28.20
2022-09-23T18:21:00.291Z,28.49
2022-09-23T18:22:33.148Z,28.59
2022-09-23T18:24:28.480Z,28.64
2022-09-23T18:25:58.928Z,28.79
2022-09-23T18:27:34.532Z,29.04
2022-09-23T18:29:07.480Z,29.23
2022-09-23T18:30:40.382Z,29.04
2022-09-23T18:32:14.410Z,29.13
2022-09-23T18:33:51.650Z,29.43
2022-09-23T18:35:24.367Z,29.28
2022-09-23T18:36:57.004Z,29.24
2022-09-23T18:38:29.776Z,29.34
2022-09-23T18:40:02.568Z,29.28
2022-09-23T18:41:35.713Z,29.25
2022-09-23T18:43:08.703Z,29.02
2022-09-23T18:44:41.465Z,29.23
2022-09-23T18:46:15.630Z,28.79
2022-09-23T18:48:07.037Z,28.93
2022-09-23T18:49:58.254Z,29.09
2022-09-23T18:51:32.397Z,29.16
2022-09-23T18:53:05.377Z,28.98
2022-09-23T18:54:37.912Z,29.10
2022-09-23T18:56:12.111Z,28.92
2022-09-23T18:57:45.087Z,28.94
2022-09-23T18:59:19.994Z,29.02
2022-09-23T19:00:53.545Z,28.84
2022-09-23T19:02:26.110Z,28.83
2022-09-23T19:04:00.097Z,28.95
2022-09-23T19:05:36.294Z,28.65
2022-09-23T19:07:08.850Z,28.71
2022-09-23T19:08:41.787Z,28.78
2022-09-23T19:10:14.466Z,28.70
2022-09-23T19:11:47.699Z,28.78
2022-09-23T19:13:20.308Z,28.66
2022-09-23T19:14:52.958Z,28.64
2022-09-23T19:16:26.181Z,28.55
2022-09-23T19:17:59.031Z,28.71
2022-09-23T19:19:31.870Z,28.56
2022-09-23T19:21:07.140Z,28.80
2022-09-23T19:22:40.262Z,28.73
2022-09-23T19:24:16.281Z,28.69
2022-09-23T19:25:49.008Z,28.77
2022-09-23T19:27:21.486Z,28.83
2022-09-23T19:28:55.606Z,28.80
2022-09-23T19:30:28.488Z,28.95
2022-09-23T19:32:01.211Z,28.92
2022-09-23T19:33:33.860Z,29.13
2022-09-23T19:35:07.278Z,29.11
2022-09-23T19:36:41.087Z,29.12
2022-09-23T19:38:14.672Z,29.24
2022-09-23T19:39:47.888Z,29.09
2022-09-23T19:41:20.995Z,29.29
2022-09-23T19:42:56.807Z,29.28
2022-09-23T19:44:29.788Z,29.44
2022-09-23T19:46:02.755Z,29.34
2022-09-23T19:47:38.332Z,29.25
2022-09-23T19:49:11.834Z,29.43
2022-09-23T19:50:46.590Z,29.46
2022-09-23T19:52:19.406Z,29.41
2022-09-23T19:53:52.020Z,29.63
2022-09-23T19:55:24.787Z,29.61
2022-09-23T19:56:57.524Z,29.72
2022-09-23T19:58:30.356Z,29.70
2022-09-23T20:00:02.938Z,29.67
2022-09-23T20:01:45.186Z,29.74
2022-09-23T20:03:20.711Z,29.64
2022-09-23T20:04:53.350Z,29.66
2022-09-23T20:06:28.950Z,29.65
2022-09-23T20:08:03.451Z,29.59
2022-09-23T20:09:36.131Z,29.46
2022-09-23T20:11:19.489Z,29.49
2022-09-23T20:12:52.230Z,29.67
2022-09-23T20:14:27.488Z,29.61
2022-09-23T20:16:00.312Z,29.50
2022-09-23T20:17:33.322Z,29.33
2022-09-23T20:19:06.240Z,29.19
2022-09-23T20:20:39.096Z,29.35
2022-09-23T20:22:33.009Z,29.51
2022-09-23T20:24:07.187Z,29.64
2022-09-23T20:26:09.110Z,29.76
2022-09-23T20:27:42.068Z,29.73
2022-09-23T20:29:14.959Z,29.82
2022-09-23T20:30:47.579Z,30.06
2022-09-23T20:32:20.519Z,30.37
2022-09-23T20:33:56.448Z,30.21
2022-09-23T20:35:33.253Z,30.21
2022-09-23T20:37:06.324Z,30.20
2022-09-23T20:38:40.224Z,30.35
2022-09-23T20:40:13.164Z,30.31
2022-09-23T20:41:46.368Z,30.75
2022-09-23T20:43:20.028Z,31.11
2022-09-23T20:44:52.989Z,31.35
2022-09-23T20:46:26.158Z,31.32